Time;durP1;ratioP1;P1;durP2;ratioP2;P2;SDS_P1;SDS_P2;PMS_P1;PMS_P2;Temp;Humidity;BMP_temperature;BMP_pressure;BME280_temperature;BME280_humidity;BME280_pressure;Samples;Min_cycle;Max_cycle;Signal;HPM_P1;HPM_P2
2021/04/23 00:01:14;;;;;;;16.40;6.70;;;4.20;81.30;;;;;;5020934;28;20046;-55
2021/04/23 00:03:56;;;;;;;16.83;7.47;;;4.30;81.20;;;;;;5003641;28;20121;-52
2021/04/23 00:06:45;;;;;;;17.40;7.57;;;4.30;81.00;;;;;;4983240;28;20566;-52
2021/04/23 00:09:12;;;;;;;21.60;7.75;;;4.30;81.20;;;;;;5005567;28;20129;-52
2021/04/23 00:11:49;;;;;;;17.75;6.90;;;4.30;81.10;;;;;;4999373;28;20049;-52
2021/04/23 00:14:18;;;;;;;16.85;7.25;;;4.40;81.40;;;;;;5006408;28;20103;-50
2021/04/23 00:16:44;;;;;;;16.08;6.45;;;4.40;81.40;;;;;;5011356;28;20049;-52
2021/04/23 00:19:14;;;;;;;13.40;6.28;;;4.50;81.40;;;;;;4997660;28;20096;-52
2021/04/23 00:21:41;;;;;;;17.00;6.70;;;4.50;81.30;;;;;;5013290;28;20065;-52
2021/04/23 00:24:08;;;;;;;15.20;6.43;;;4.50;81.10;;;;;;5011116;28;20045;-52
2021/04/23 00:26:34;;;;;;;20.65;6.07;;;4.60;81.20;;;;;;5008841;28;20418;-51
2021/04/23 00:29:00;;;;;;;16.67;6.18;;;4.60;80.90;;;;;;5002251;28;20097;-54
2021/04/23 00:31:26;;;;;;;18.98;6.70;;;4.60;81.20;;;;;;5008392;28;20041;-53
2021/04/23 00:33:51;;;;;;;15.85;6.60;;;4.70;81.10;;;;;;5011039;28;20108;-56
2021/04/23 00:36:17;;;;;;;19.95;6.60;;;4.70;81.00;;;;;;5012609;28;20033;-52
2021/04/23 00:38:43;;;;;;;20.98;6.53;;;4.70;81.20;;;;;;5012513;28;20490;-53
2021/04/23 00:41:31;;;;;;;15.88;6.10;;;4.70;81.50;;;;;;5001638;28;20063;-52
2021/04/23 00:43:57;;;;;;;15.57;5.88;;;4.70;81.60;;;;;;5012326;28;20034;-53
2021/04/23 00:46:29;;;;;;;12.95;6.18;;;4.90;82.00;;;;;;4999725;28;20050;-52
2021/04/23 00:48:55;;;;;;;16.05;5.82;;;4.60;81.70;;;;;;5010685;28;20103;-50
2021/04/23 00:51:25;;;;;;;17.73;6.50;;;4.60;81.80;;;;;;5011677;28;20557;-51
2021/04/23 00:53:54;;;;;;;19.15;6.57;;;4.60;81.70;;;;;;5005364;28;20042;-52
2021/04/23 00:56:22;;;;;;;16.67;6.03;;;4.60;82.00;;;;;;5008048;28;20445;-49
2021/04/23 00:58:49;;;;;;;15.23;6.03;;;4.50;82.30;;;;;;5012290;28;20042;-49
2021/04/23 01:01:20;;;;;;;20.95;6.60;;;4.50;82.40;;;;;;4994620;28;20088;-52
2021/04/23 01:03:47;;;;;;;15.85;5.97;;;4.50;82.60;;;;;;4993459;28;20042;-52
2021/04/23 01:06:17;;;;;;;17.67;7.43;;;4.50;82.30;;;;;;5009312;28;20046;-52
2021/04/23 01:08:45;;;;;;;16.75;6.35;;;4.40;82.50;;;;;;5003571;28;20048;-53
2021/04/23 01:11:12;;;;;;;18.58;6.15;;;4.50;82.50;;;;;;4992473;28;20049;-51
2021/04/23 01:13:40;;;;;;;20.90;6.85;;;4.40;82.80;;;;;;5000492;28;20076;-52
2021/04/23 01:16:08;;;;;;;18.02;6.60;;;4.30;83.00;;;;;;4980593;28;20142;-49
2021/04/23 01:18:35;;;;;;;17.45;6.30;;;4.30;83.10;;;;;;5001856;28;20041;-55
2021/04/23 01:21:06;;;;;;;16.85;6.57;;;4.20;83.10;;;;;;4995433;28;20056;-52
2021/04/23 01:23:33;;;;;;;15.25;6.20;;;4.20;83.30;;;;;;5005743;28;20041;-54
2021/04/23 01:25:59;;;;;;;16.48;5.85;;;4.10;83.50;;;;;;5006350;28;20572;-53
2021/04/23 01:28:29;;;;;;;14.60;7.00;;;4.10;83.70;;;;;;5007803;28;20052;-52
2021/04/23 01:30:56;;;;;;;19.35;6.10;;;4.10;83.80;;;;;;5002118;28;20041;-53
2021/04/23 01:33:21;;;;;;;21.17;6.20;;;4.00;84.00;;;;;;5012542;28;20461;-53
2021/04/23 01:35:47;;;;;;;18.63;6.70;;;3.90;84.40;;;;;;5010899;28;20100;-56
2021/04/23 01:38:13;;;;;;;20.67;6.43;;;3.90;84.90;;;;;;5006066;28;20565;-55
2021/04/23 01:40:41;;;;;;;16.08;6.05;;;3.90;84.50;;;;;;5001288;28;20042;-54
2021/04/23 01:43:07;;;;;;;16.35;6.22;;;3.90;84.50;;;;;;5003834;28;20109;-53
2021/04/23 01:45:32;;;;;;;18.17;6.78;;;3.80;84.70;;;;;;5004308;28;20527;-53
2021/04/23 01:47:58;;;;;;;20.95;7.50;;;3.80;84.80;;;;;;5001351;28;20112;-51
2021/04/23 01:50:24;;;;;;;19.13;6.65;;;3.80;85.30;;;;;;5010276;28;20053;-51
2021/04/23 01:52:49;;;;;;;18.23;6.35;;;3.80;85.50;;;;;;5006479;28;20049;-54
2021/04/23 01:55:19;;;;;;;16.33;6.65;;;3.70;85.30;;;;;;4993746;28;20074;-53
2021/04/23 01:57:45;;;;;;;16.95;6.88;;;3.70;85.40;;;;;;5002771;28;20050;-52
2021/04/23 02:00:43;;;;;;;15.30;6.43;;;3.60;85.50;;;;;;5001912;28;20499;-54
2021/04/23 02:03:10;;;;;;;16.65;6.18;;;3.60;85.80;;;;;;5004452;28;20463;-52
2021/04/23 02:05:37;;;;;;;16.60;6.68;;;3.50;85.70;;;;;;5012001;28;20057;-53
2021/04/23 02:08:04;;;;;;;16.60;6.75;;;3.50;86.00;;;;;;5008623;28;20084;-51
2021/04/23 02:10:35;;;;;;;15.50;6.28;;;3.40;85.50;;;;;;5001821;28;20259;-49
2021/04/23 02:13:00;;;;;;;13.75;6.15;;;3.40;85.70;;;;;;4996037;28;20049;-50
2021/04/23 02:15:27;;;;;;;16.27;6.50;;;3.30;85.70;;;;;;5011278;28;20393;-50
2021/04/23 02:17:55;;;;;;;18.08;6.82;;;3.30;85.70;;;;;;4995866;28;20105;-50
2021/04/23 02:20:24;;;;;;;17.38;6.10;;;3.20;86.60;;;;;;5006609;28;20528;-53
2021/04/23 02:22:50;;;;;;;16.05;7.10;;;3.20;86.30;;;;;;4994826;28;20046;-53
2021/04/23 02:25:19;;;;;;;16.27;7.60;;;3.10;86.30;;;;;;5001835;28;20111;-53
2021/04/23 02:27:45;;;;;;;16.55;6.85;;;3.00;86.60;;;;;;5003705;28;20050;-53
2021/04/23 02:30:24;;;;;;;20.25;7.28;;;3.00;86.80;;;;;;4992688;28;20088;-52
2021/04/23 02:32:49;;;;;;;18.73;6.40;;;3.00;87.00;;;;;;4994493;28;20046;-52
2021/04/23 02:35:16;;;;;;;24.00;6.80;;;3.00;87.20;;;;;;5008702;28;20053;-54
2021/04/23 02:37:42;;;;;;;16.67;6.95;;;3.00;87.40;;;;;;4987283;28;20049;-51
2021/04/23 02:40:12;;;;;;;19.65;7.25;;;3.00;87.60;;;;;;5009637;28;20042;-53
2021/04/23 02:42:38;;;;;;;19.45;7.20;;;3.00;87.80;;;;;;5013218;28;20042;-53
2021/04/23 02:45:07;;;;;;;23.23;7.00;;;2.90;87.80;;;;;;5001051;28;20062;-49
2021/04/23 02:47:33;;;;;;;17.70;6.40;;;2.90;87.70;;;;;;5000329;28;20045;-52
2021/04/23 02:49:59;;;;;;;14.98;7.10;;;2.80;87.60;;;;;;5003602;28;20442;-51
2021/04/23 02:52:25;;;;;;;14.82;6.68;;;2.80;87.50;;;;;;5013357;28;20046;-52
2021/04/23 02:54:51;;;;;;;20.05;6.35;;;2.80;87.60;;;;;;5007567;28;20046;-51
2021/04/23 02:57:18;;;;;;;19.25;5.97;;;2.80;87.80;;;;;;4995588;28;20045;-51
2021/04/23 02:59:44;;;;;;;14.50;6.03;;;2.70;87.60;;;;;;4998748;28;20092;-52
2021/04/23 03:02:10;;;;;;;17.55;6.07;;;2.70;87.50;;;;;;4995565;28;20063;-51
2021/04/23 03:04:36;;;;;;;17.27;5.93;;;2.70;87.50;;;;;;4980533;28;20078;-51
2021/04/23 03:07:05;;;;;;;17.08;6.75;;;2.60;87.60;;;;;;5004841;28;20078;-53
2021/04/23 03:09:31;;;;;;;15.30;6.13;;;2.50;87.60;;;;;;5011070;28;20054;-55
2021/04/23 03:11:57;;;;;;;13.85;5.68;;;2.50;87.80;;;;;;5010730;28;20447;-50
2021/04/23 03:14:22;;;;;;;18.35;6.10;;;2.50;87.50;;;;;;5003913;28;20133;-52
2021/04/23 03:16:48;;;;;;;16.30;6.82;;;2.40;87.50;;;;;;5007532;28;20044;-53
2021/04/23 03:19:18;;;;;;;20.48;6.03;;;2.40;87.70;;;;;;5012833;28;20482;-51
2021/04/23 03:21:44;;;;;;;15.52;5.75;;;2.40;88.00;;;;;;4981158;28;20038;-51
2021/04/23 03:24:11;;;;;;;16.58;5.95;;;2.50;88.40;;;;;;5001479;28;20040;-49
2021/04/23 03:26:39;;;;;;;18.15;6.05;;;2.50;88.40;;;;;;5008770;28;20507;-51
2021/04/23 03:29:06;;;;;;;14.50;5.50;;;2.50;88.30;;;;;;5008540;28;20121;-51
2021/04/23 03:31:33;;;;;;;12.35;5.60;;;2.50;88.30;;;;;;5012231;28;20052;-54
2021/04/23 03:33:58;;;;;;;14.05;5.57;;;2.50;88.30;;;;;;5010794;28;20042;-51
2021/04/23 03:36:24;;;;;;;17.25;5.38;;;2.50;88.30;;;;;;5002430;28;20451;-53
2021/04/23 03:38:51;;;;;;;15.73;5.82;;;2.50;88.10;;;;;;5011663;28;20076;-52
2021/04/23 03:41:22;;;;;;;16.33;5.40;;;2.50;88.30;;;;;;5010888;28;20499;-51
2021/04/23 03:43:48;;;;;;;15.32;4.97;;;2.50;88.40;;;;;;5005481;28;20533;-50
2021/04/23 03:46:14;;;;;;;13.38;5.32;;;2.50;88.60;;;;;;5011923;28;20096;-52
2021/04/23 03:48:43;;;;;;;15.07;5.40;;;2.50;88.40;;;;;;4995964;28;20053;-53
2021/04/23 03:51:09;;;;;;;16.00;5.22;;;2.50;88.40;;;;;;5010885;28;20651;-51
2021/04/23 03:53:35;;;;;;;17.63;5.38;;;2.50;88.30;;;;;;5002411;28;20038;-51
2021/04/23 03:56:04;;;;;;;11.70;4.85;;;2.50;88.40;;;;;;5006207;28;20396;-52
2021/04/23 03:58:31;;;;;;;17.10;5.00;;;2.50;88.10;;;;;;5012346;28;20056;-51
2021/04/23 04:01:03;;;;;;;11.45;4.95;;;2.50;88.20;;;;;;5013595;28;20493;-51
2021/04/23 04:03:29;;;;;;;13.30;4.60;;;2.60;88.30;;;;;;5001588;28;20077;-52
2021/04/23 04:05:56;;;;;;;10.18;5.05;;;2.60;88.20;;;;;;5011745;28;20038;-53
2021/04/23 04:08:22;;;;;;;13.60;4.60;;;2.60;88.20;;;;;;4999965;28;20045;-52
2021/04/23 04:10:50;;;;;;;17.00;4.63;;;2.60;88.00;;;;;;5016193;28;20506;-49
2021/04/23 04:13:18;;;;;;;15.25;4.60;;;2.70;88.00;;;;;;4996700;28;20498;-50
2021/04/23 04:15:45;;;;;;;12.85;4.90;;;2.70;88.20;;;;;;5008030;28;20050;-52
2021/04/23 04:18:11;;;;;;;14.73;5.50;;;2.70;88.30;;;;;;5009179;28;20042;-52
2021/04/23 04:20:41;;;;;;;15.60;4.60;;;2.70;88.00;;;;;;5004150;28;20050;-51
2021/04/23 04:23:09;;;;;;;14.48;4.18;;;2.70;87.90;;;;;;5002273;28;20200;-51
2021/04/23 04:25:37;;;;;;;15.93;4.60;;;2.70;87.90;;;;;;5005563;28;20041;-48
2021/04/23 04:28:04;;;;;;;14.80;4.53;;;2.80;88.00;;;;;;5004721;28;20442;-51
2021/04/23 04:30:30;;;;;;;12.75;4.35;;;2.80;88.20;;;;;;5014362;28;20091;-50
2021/04/23 04:32:57;;;;;;;17.63;4.32;;;2.80;88.20;;;;;;5010523;28;20046;-50
2021/04/23 04:35:24;;;;;;;16.02;4.75;;;2.80;88.70;;;;;;5012472;28;20041;-50
2021/04/23 04:37:50;;;;;;;14.75;4.43;;;2.90;88.10;;;;;;5010035;28;20049;-49
2021/04/23 04:40:17;;;;;;;14.05;3.88;;;2.90;88.00;;;;;;5011994;28;20147;-54
2021/04/23 04:42:43;;;;;;;14.80;4.40;;;2.90;87.90;;;;;;5011910;28;20126;-53
2021/04/23 04:45:13;;;;;;;15.95;4.47;;;2.80;87.80;;;;;;5013163;28;20160;-51
2021/04/23 04:47:39;;;;;;;12.82;4.35;;;2.90;87.80;;;;;;5007613;28;20042;-48
2021/04/23 04:50:09;;;;;;;11.18;4.05;;;2.90;87.70;;;;;;4985944;28;20046;-51
2021/04/23 04:52:35;;;;;;;13.93;4.13;;;2.90;87.60;;;;;;5010235;28;20061;-49
2021/04/23 04:55:05;;;;;;;13.52;4.30;;;2.90;87.80;;;;;;5011690;28;20053;-49
2021/04/23 04:57:33;;;;;;;12.07;3.80;;;2.90;87.60;;;;;;5003055;28;20052;-48
2021/04/23 05:00:06;;;;;;;12.43;3.67;;;3.00;87.80;;;;;;4995176;28;20046;-48
2021/04/23 05:02:33;;;;;;;10.05;3.78;;;3.00;88.00;;;;;;5005932;28;20104;-50
2021/04/23 05:04:59;;;;;;;13.20;4.78;;;3.00;87.80;;;;;;5011370;28;20035;-48
2021/04/23 05:07:24;;;;;;;14.55;4.22;;;3.00;87.80;;;;;;5004118;28;20053;-48
2021/04/23 05:09:50;;;;;;;15.65;4.15;;;3.10;87.80;;;;;;5008663;28;20054;-49
2021/04/23 05:12:18;;;;;;;8.80;4.25;;;3.10;87.80;;;;;;4992458;28;20034;-49
2021/04/23 05:14:44;;;;;;;14.77;4.32;;;3.20;87.70;;;;;;5003645;28;20038;-51
2021/04/23 05:17:09;;;;;;;15.25;3.90;;;3.30;87.70;;;;;;4995116;28;20506;-53
2021/04/23 05:19:35;;;;;;;15.95;4.60;;;3.40;87.30;;;;;;4999695;28;20040;-50
2021/04/23 05:22:01;;;;;;;16.85;4.07;;;3.50;86.90;;;;;;4997607;28;20042;-50
2021/04/23 05:24:27;;;;;;;10.55;3.58;;;3.50;86.70;;;;;;4995798;28;20042;-51
2021/04/23 05:26:52;;;;;;;16.20;4.40;;;3.60;86.80;;;;;;5008596;28;20527;-51
2021/04/23 05:29:18;;;;;;;18.38;3.92;;;3.80;86.50;;;;;;5006814;28;20056;-51
2021/04/23 05:31:44;;;;;;;12.90;3.70;;;3.90;86.10;;;;;;4993684;28;20159;-49
2021/04/23 05:34:09;;;;;;;17.92;3.85;;;4.10;85.70;;;;;;5015283;28;20052;-52
2021/04/23 05:36:35;;;;;;;11.68;3.47;;;4.30;85.20;;;;;;5011963;28;20041;-51
2021/04/23 05:39:03;;;;;;;11.82;3.38;;;4.50;84.90;;;;;;5010003;28;20042;-51
2021/04/23 05:41:28;;;;;;;10.38;3.33;;;4.80;84.20;;;;;;4997935;28;20084;-51
2021/04/23 05:43:54;;;;;;;11.35;3.50;;;5.30;83.10;;;;;;5006369;28;20049;-51
2021/04/23 05:46:20;;;;;;;12.10;3.05;;;5.70;81.20;;;;;;5005495;28;20053;-48
2021/04/23 05:48:48;;;;;;;16.17;2.95;;;6.10;80.30;;;;;;5009503;28;20046;-52
2021/04/23 05:51:16;;;;;;;9.73;2.72;;;6.50;78.70;;;;;;5009359;28;20050;-51
2021/04/23 05:53:42;;;;;;;14.65;3.00;;;7.00;77.00;;;;;;5005298;28;20054;-49
2021/04/23 05:56:08;;;;;;;11.40;2.90;;;7.60;74.60;;;;;;5001391;28;20125;-49
2021/04/23 05:58:34;;;;;;;10.55;3.55;;;8.00;73.50;;;;;;5012361;28;20550;-49
2021/04/23 06:01:00;;;;;;;14.52;3.33;;;8.60;71.70;;;;;;5013141;28;20053;-49
2021/04/23 06:03:26;;;;;;;9.80;3.30;;;9.30;69.30;;;;;;5009518;28;20069;-49
2021/04/23 06:05:52;;;;;;;14.05;3.63;;;9.70;67.70;;;;;;5001174;28;20116;-49
2021/04/23 06:08:18;;;;;;;17.55;3.10;;;10.00;66.80;;;;;;4995235;28;20115;-50
2021/04/23 06:10:47;;;;;;;10.18;2.90;;;10.20;66.40;;;;;;4991303;28;20053;-49
2021/04/23 06:13:14;;;;;;;13.15;3.78;;;10.30;65.50;;;;;;5009848;28;20061;-55
2021/04/23 06:15:41;;;;;;;9.85;2.95;;;10.30;66.00;;;;;;5008379;28;20046;-55
2021/04/23 06:18:10;;;;;;;14.00;3.10;;;10.60;64.60;;;;;;5007685;28;20053;-52
2021/04/23 06:20:36;;;;;;;11.98;2.85;;;10.90;64.20;;;;;;5001327;28;20552;-49
2021/04/23 06:23:03;;;;;;;17.67;3.35;;;10.80;63.50;;;;;;5010904;28;20410;-49
2021/04/23 06:25:29;;;;;;;10.93;2.88;;;10.40;64.50;;;;;;5009908;28;20038;-50
2021/04/23 06:27:56;;;;;;;13.13;3.38;;;10.10;66.10;;;;;;5003471;28;20041;-50
2021/04/23 06:30:30;;;;;;;15.40;3.60;;;9.70;67.60;;;;;;5010631;28;20037;-50
2021/04/23 06:32:58;;;;;;;13.05;2.95;;;9.40;68.50;;;;;;5013689;28;20064;-52
2021/04/23 06:35:29;;;;;;;13.82;3.58;;;9.20;69.70;;;;;;5001725;28;20081;-54
2021/04/23 06:37:56;;;;;;;16.17;2.90;;;8.90;70.40;;;;;;5013524;28;20041;-52
2021/04/23 06:40:22;;;;;;;8.38;2.83;;;8.70;70.90;;;;;;5012552;28;20115;-52
2021/04/23 06:42:48;;;;;;;12.70;4.10;;;8.50;71.30;;;;;;5011149;28;20041;-50
2021/04/23 06:45:25;;;;;;;8.93;2.80;;;8.40;71.40;;;;;;5009508;28;20053;-50
2021/04/23 06:47:51;;;;;;;13.52;2.55;;;8.30;72.30;;;;;;4993098;28;20042;-51
2021/04/23 06:50:20;;;;;;;13.32;3.20;;;8.20;72.30;;;;;;5011852;28;20062;-50
2021/04/23 06:52:46;;;;;;;12.60;3.38;;;8.10;72.50;;;;;;5012398;28;20034;-52
2021/04/23 06:55:14;;;;;;;19.65;3.40;;;8.10;72.90;;;;;;5009346;28;20088;-53
2021/04/23 06:57:40;;;;;;;12.95;3.47;;;8.10;73.00;;;;;;4993016;28;20061;-52
2021/04/23 07:00:10;;;;;;;12.07;3.10;;;8.20;73.40;;;;;;4999779;28;20080;-49
2021/04/23 07:02:36;;;;;;;16.02;3.42;;;8.30;73.40;;;;;;5005874;28;20046;-49
2021/04/23 07:05:02;;;;;;;18.63;3.50;;;8.50;72.70;;;;;;4996505;28;20423;-49
2021/04/23 07:07:28;;;;;;;12.82;2.80;;;8.60;72.90;;;;;;5001059;28;20045;-49
2021/04/23 07:09:53;;;;;;;8.82;2.88;;;8.70;72.60;;;;;;5007673;28;20505;-52
2021/04/23 07:12:20;;;;;;;11.93;3.65;;;8.70;72.30;;;;;;5003118;28;20051;-51
2021/04/23 07:14:46;;;;;;;17.30;3.72;;;8.70;72.10;;;;;;4988472;28;20038;-49
2021/04/23 07:17:12;;;;;;;11.02;3.38;;;8.70;71.80;;;;;;4995649;28;20106;-51
2021/04/23 07:19:38;;;;;;;10.63;3.25;;;8.70;71.00;;;;;;4991378;28;20039;-48
2021/04/23 07:22:05;;;;;;;12.57;3.10;;;8.60;70.10;;;;;;5005606;28;20069;-52
2021/04/23 07:24:32;;;;;;;12.40;3.05;;;8.60;67.20;;;;;;5008027;28;20046;-53
2021/04/23 07:26:58;;;;;;;11.23;3.25;;;8.50;66.60;;;;;;5007786;28;20031;-52
2021/04/23 07:29:24;;;;;;;12.65;3.65;;;8.40;67.80;;;;;;5011580;28;20568;-55
2021/04/23 07:31:49;;;;;;;10.27;3.40;;;8.40;68.70;;;;;;5008428;28;20461;-52
2021/04/23 07:34:15;;;;;;;10.93;3.05;;;8.50;69.80;;;;;;5005324;28;20100;-51
2021/04/23 07:36:42;;;;;;;14.57;3.83;;;8.70;69.90;;;;;;4990296;28;20049;-51
2021/04/23 07:39:10;;;;;;;8.68;3.08;;;8.70;69.40;;;;;;5003558;28;20050;-50
2021/04/23 07:41:38;;;;;;;14.88;3.35;;;8.80;69.30;;;;;;5004156;28;20045;-50
2021/04/23 07:44:05;;;;;;;9.23;3.72;;;8.70;69.00;;;;;;5004229;28;20038;-49
2021/04/23 07:46:31;;;;;;;11.30;4.03;;;8.80;68.50;;;;;;4990622;28;20034;-52
2021/04/23 07:48:57;;;;;;;9.27;3.40;;;8.80;68.90;;;;;;4986727;28;20116;-51
2021/04/23 07:51:23;;;;;;;13.57;4.13;;;8.70;69.10;;;;;;4989422;28;20050;-53
2021/04/23 07:53:49;;;;;;;8.63;3.38;;;8.80;67.40;;;;;;5001908;28;20084;-55
2021/04/23 07:56:14;;;;;;;12.73;3.70;;;8.80;68.60;;;;;;4991821;28;20053;-52
2021/04/23 07:58:40;;;;;;;13.82;3.75;;;8.70;69.00;;;;;;4958275;28;20499;-50
2021/04/23 08:01:06;;;;;;;8.52;3.65;;;8.70;68.60;;;;;;4992991;28;20134;-53
2021/04/23 08:03:33;;;;;;;11.23;3.70;;;8.60;68.40;;;;;;5006045;28;20570;-52
2021/04/23 08:05:59;;;;;;;11.02;3.13;;;8.70;67.70;;;;;;4986232;28;20495;-50
2021/04/23 08:08:25;;;;;;;9.50;2.92;;;8.80;65.30;;;;;;5007199;28;20073;-52
2021/04/23 08:10:53;;;;;;;9.93;3.33;;;9.00;63.50;;;;;;5009888;28;20438;-53
2021/04/23 08:13:20;;;;;;;8.43;3.53;;;9.00;64.60;;;;;;5004949;28;20422;-52
2021/04/23 08:15:46;;;;;;;14.10;3.53;;;9.20;65.70;;;;;;5001107;28;20471;-52
2021/04/23 08:18:12;;;;;;;10.32;3.65;;;9.30;64.40;;;;;;4994466;28;20035;-49
2021/04/23 08:20:38;;;;;;;13.38;3.75;;;9.40;65.10;;;;;;5002566;28;20133;-51
2021/04/23 08:23:04;;;;;;;11.55;4.00;;;9.40;64.80;;;;;;5005691;28;20121;-51
2021/04/23 08:25:31;;;;;;;10.73;3.67;;;9.40;65.30;;;;;;5003683;28;20042;-52
2021/04/23 08:27:56;;;;;;;11.88;4.00;;;9.30;65.30;;;;;;5001730;28;20046;-54
2021/04/23 08:30:24;;;;;;;12.35;3.83;;;9.20;64.60;;;;;;5002211;28;20141;-52
2021/04/23 08:32:51;;;;;;;11.93;3.53;;;9.10;65.20;;;;;;5010683;28;20042;-53
2021/04/23 08:35:18;;;;;;;11.02;3.70;;;9.30;64.90;;;;;;4999940;28;20470;-50
2021/04/23 08:37:46;;;;;;;10.43;3.65;;;9.50;64.20;;;;;;5011032;28;20451;-53
2021/04/23 08:40:14;;;;;;;9.45;3.35;;;9.70;64.30;;;;;;5001061;28;20046;-53
2021/04/23 08:42:40;;;;;;;10.50;3.38;;;9.50;62.10;;;;;;5007490;28;20042;-52
2021/04/23 08:45:10;;;;;;;11.35;3.63;;;9.60;61.40;;;;;;5005611;28;20288;-49
2021/04/23 08:47:37;;;;;;;11.48;3.45;;;9.60;62.50;;;;;;4998556;28;20172;-49
2021/04/23 08:50:05;;;;;;;9.65;3.53;;;9.60;63.10;;;;;;5013051;28;20046;-51
2021/04/23 08:52:32;;;;;;;10.43;3.67;;;9.60;62.80;;;;;;5010179;28;20046;-49
2021/04/23 08:54:58;;;;;;;9.75;3.38;;;9.60;62.40;;;;;;5005382;28;20046;-49
2021/04/23 08:57:25;;;;;;;10.35;3.72;;;9.70;63.00;;;;;;5019372;28;20046;-52
2021/04/23 08:59:51;;;;;;;12.20;3.65;;;9.90;63.30;;;;;;5007104;28;20046;-52
2021/04/23 09:02:17;;;;;;;10.13;3.42;;;10.10;62.80;;;;;;4999047;28;20418;-54
2021/04/23 09:04:43;;;;;;;16.50;3.90;;;10.20;61.80;;;;;;4999107;28;20031;-52
2021/04/23 09:07:09;;;;;;;8.52;3.30;;;10.00;62.20;;;;;;5011097;28;20075;-51
2021/04/23 09:09:40;;;;;;;11.02;3.45;;;9.90;61.70;;;;;;5008895;28;20049;-53
2021/04/23 09:12:24;;;;;;;10.53;3.80;;;9.70;62.90;;;;;;5008396;28;20037;-52
2021/04/23 09:14:53;;;;;;;7.80;3.17;;;9.80;63.80;;;;;;5002468;28;20128;-55
2021/04/23 09:17:22;;;;;;;10.43;3.42;;;10.00;63.30;;;;;;5002551;28;20053;-54
2021/04/23 09:19:48;;;;;;;9.43;3.60;;;10.10;62.60;;;;;;5008685;28;20096;-55
2021/04/23 09:22:17;;;;;;;14.10;3.55;;;10.10;63.00;;;;;;5007232;28;20487;-51
2021/04/23 09:24:46;;;;;;;13.20;3.80;;;10.30;59.40;;;;;;5011716;28;20104;-54
2021/04/23 09:27:19;;;;;;;9.40;3.33;;;10.30;59.40;;;;;;4997138;28;20034;-55
2021/04/23 09:29:47;;;;;;;12.82;3.47;;;10.50;58.40;;;;;;5012548;28;20116;-52
2021/04/23 09:32:13;;;;;;;14.77;3.78;;;10.60;58.20;;;;;;5012282;28;20190;-54
2021/04/23 09:35:13;;;;;;;8.07;3.72;;;10.60;59.70;;;;;;5000938;28;20045;-53
2021/04/23 09:37:50;;;;;;;7.95;3.72;;;10.90;58.20;;;;;;5001724;28;20503;-54
2021/04/23 09:40:20;;;;;;;9.98;4.25;;;11.00;57.00;;;;;;5005424;28;20577;-54
2021/04/23 09:42:54;;;;;;;8.63;3.60;;;11.10;57.30;;;;;;5012110;28;20048;-53
2021/04/23 09:45:25;;;;;;;10.38;4.15;;;11.10;57.20;;;;;;5011686;28;20052;-54
2021/04/23 09:47:52;;;;;;;8.77;4.10;;;11.10;57.80;;;;;;5004404;28;20035;-55
2021/04/23 09:50:20;;;;;;;8.85;3.90;;;11.20;58.10;;;;;;5006253;28;20042;-54
2021/04/23 09:52:52;;;;;;;8.13;3.60;;;11.20;57.90;;;;;;5002938;28;20046;-54
2021/04/23 09:55:26;;;;;;;11.60;3.97;;;11.30;58.50;;;;;;5011015;28;20542;-53
2021/04/23 09:58:13;;;;;;;10.80;3.95;;;11.40;58.50;;;;;;5000918;28;20490;-55
2021/04/23 10:00:40;;;;;;;10.60;3.83;;;11.40;58.00;;;;;;4999379;28;20430;-54
2021/04/23 10:03:07;;;;;;;8.57;3.60;;;11.40;56.40;;;;;;5010575;28;20121;-54
2021/04/23 10:05:34;;;;;;;9.10;4.13;;;11.40;55.60;;;;;;5005642;28;20142;-53
2021/04/23 10:08:02;;;;;;;10.35;4.45;;;11.30;56.30;;;;;;5006799;28;20146;-54
2021/04/23 10:10:29;;;;;;;8.55;3.90;;;11.10;57.10;;;;;;5010334;28;20041;-55
2021/04/23 10:12:59;;;;;;;11.27;4.05;;;11.00;57.90;;;;;;4977807;28;20091;-55
2021/04/23 10:15:40;;;;;;;13.90;4.10;;;11.00;58.60;;;;;;4999873;28;20034;-55
2021/04/23 10:18:11;;;;;;;8.50;4.22;;;10.80;58.70;;;;;;4997107;28;20554;-54
2021/04/23 10:20:40;;;;;;;14.02;4.15;;;10.80;59.20;;;;;;5005031;28;20068;-54
2021/04/23 10:23:08;;;;;;;12.85;4.20;;;10.70;56.90;;;;;;5011472;28;20056;-54
2021/04/23 10:25:34;;;;;;;14.88;3.75;;;10.60;58.00;;;;;;5009999;28;20126;-55
2021/04/23 10:28:02;;;;;;;9.90;3.90;;;10.60;58.50;;;;;;5009209;28;20096;-54
2021/04/23 10:30:30;;;;;;;8.18;3.80;;;10.70;58.10;;;;;;5007013;28;20049;-53
2021/04/23 10:32:59;;;;;;;7.05;3.70;;;10.90;57.90;;;;;;5010381;28;20045;-54
2021/04/23 10:35:26;;;;;;;6.13;3.78;;;11.20;57.50;;;;;;5007907;28;20081;-54
2021/04/23 10:37:53;;;;;;;10.32;3.92;;;11.50;56.40;;;;;;5007816;28;20034;-54
2021/04/23 10:40:21;;;;;;;7.90;3.92;;;11.70;53.00;;;;;;5008001;28;20541;-55
2021/04/23 10:42:49;;;;;;;8.48;3.95;;;11.70;52.20;;;;;;5007807;28;20049;-54
2021/04/23 10:45:22;;;;;;;8.43;3.95;;;11.70;54.10;;;;;;5006896;28;20041;-53
2021/04/23 10:47:57;;;;;;;9.25;3.85;;;11.70;54.10;;;;;;5001770;28;20049;-52
2021/04/23 10:50:25;;;;;;;9.30;4.15;;;11.50;56.50;;;;;;5000354;28;20145;-52
2021/04/23 10:52:58;;;;;;;7.57;3.58;;;11.30;56.70;;;;;;4993382;28;20409;-51
2021/04/23 10:55:45;;;;;;;7.82;3.80;;;11.20;57.10;;;;;;5003962;28;20045;-54
2021/04/23 10:58:31;;;;;;;13.00;4.35;;;11.20;58.10;;;;;;4999246;28;20041;-51
2021/04/23 11:00:59;;;;;;;8.40;3.85;;;11.10;56.00;;;;;;5000905;28;20453;-53
2021/04/23 11:03:27;;;;;;;8.90;4.30;;;11.10;55.90;;;;;;5005326;28;20049;-50
2021/04/23 11:05:54;;;;;;;11.13;4.22;;;11.10;55.70;;;;;;4993143;28;20042;-56
2021/04/23 11:08:20;;;;;;;9.27;3.90;;;11.10;55.60;;;;;;5003847;28;20125;-50
2021/04/23 11:13:32;;;;;;;10.15;4.38;;;11.40;55.60;;;;;;5004820;28;20498;-50
2021/04/23 11:16:24;;;;;;;8.73;4.30;;;11.70;55.30;;;;;;5004816;28;20058;-53
2021/04/23 11:18:54;;;;;;;8.18;4.07;;;12.00;53.70;;;;;;4999718;28;20550;-51
2021/04/23 11:24:09;;;;;;;7.53;3.88;;;12.20;51.70;;;;;;4996029;28;20049;-50
2021/04/23 11:26:53;;;;;;;9.18;4.07;;;12.40;52.60;;;;;;5008626;28;20053;-53
2021/04/23 11:29:19;;;;;;;7.90;3.90;;;12.30;52.40;;;;;;5009586;28;20053;-50
2021/04/23 11:32:04;;;;;;;7.57;4.07;;;12.20;53.30;;;;;;5007204;28;20063;-52
2021/04/23 11:34:36;;;;;;;8.10;4.18;;;12.10;53.70;;;;;;5001923;28;20545;-49
2021/04/23 11:37:04;;;;;;;9.25;4.05;;;12.10;53.70;;;;;;5006482;28;20092;-53
2021/04/23 11:39:32;;;;;;;7.15;3.70;;;12.20;53.70;;;;;;5009874;28;20042;-52
2021/04/23 11:42:15;;;;;;;8.88;4.30;;;12.40;53.00;;;;;;5008570;28;20033;-51
2021/04/23 11:44:51;;;;;;;11.38;4.22;;;12.60;52.70;;;;;;5010468;28;20081;-51
2021/04/23 11:47:26;;;;;;;6.25;3.90;;;12.60;54.10;;;;;;5008935;28;20042;-53
2021/04/23 11:49:59;;;;;;;9.88;4.35;;;12.50;54.30;;;;;;5008898;28;20056;-50
2021/04/23 11:52:32;;;;;;;7.07;3.70;;;12.30;54.30;;;;;;5009608;28;20042;-51
2021/04/23 11:54:58;;;;;;;8.55;4.18;;;12.20;54.30;;;;;;5010011;28;20053;-53
2021/04/23 11:57:30;;;;;;;7.97;4.03;;;12.20;55.20;;;;;;5011559;28;20050;-52
2021/04/23 12:00:02;;;;;;;9.57;4.10;;;12.10;54.30;;;;;;5011819;28;20038;-51
2021/04/23 12:02:45;;;;;;;10.48;4.30;;;12.10;54.70;;;;;;5011545;28;20054;-53
2021/04/23 12:05:20;;;;;;;8.75;4.28;;;12.30;52.30;;;;;;5011122;28;20046;-52
2021/04/23 12:07:46;;;;;;;8.93;4.30;;;12.50;50.10;;;;;;5008346;28;20052;-49
2021/04/23 12:10:13;;;;;;;9.38;4.35;;;12.50;50.80;;;;;;5010135;28;20129;-51
2021/04/23 12:12:41;;;;;;;7.78;4.10;;;12.70;52.30;;;;;;5010425;28;20087;-53
2021/04/23 12:15:07;;;;;;;7.57;4.15;;;12.80;52.80;;;;;;5012521;28;20045;-51
2021/04/23 12:17:41;;;;;;;8.88;4.78;;;12.80;52.30;;;;;;5009039;28;20450;-52
2021/04/23 12:20:24;;;;;;;10.40;4.25;;;12.90;48.70;;;;;;5013191;28;20064;-52
2021/04/23 12:22:51;;;;;;;7.13;4.35;;;12.70;50.10;;;;;;5011122;28;20038;-52
2021/04/23 12:25:31;;;;;;;10.05;5.18;;;12.70;49.10;;;;;;5012386;28;20048;-50
2021/04/23 12:28:17;;;;;;;12.40;4.85;;;12.60;50.50;;;;;;5008900;28;20506;-52
2021/04/23 12:30:44;;;;;;;10.70;4.65;;;12.50;51.30;;;;;;5011451;28;20233;-51
2021/04/23 12:33:10;;;;;;;9.35;4.72;;;12.20;51.10;;;;;;5002467;28;20050;-55
2021/04/23 12:35:41;;;;;;;10.27;4.70;;;12.20;51.70;;;;;;5012731;28;20045;-54
2021/04/23 12:38:10;;;;;;;8.25;4.07;;;12.30;50.30;;;;;;4999573;28;20047;-53
2021/04/23 12:40:46;;;;;;;10.50;4.82;;;12.40;51.40;;;;;;5010091;28;20061;-52
2021/04/23 12:43:13;;;;;;;10.68;5.05;;;12.70;51.90;;;;;;4991357;28;20133;-51
2021/04/23 12:45:50;;;;;;;11.75;5.10;;;13.00;49.90;;;;;;5011272;28;20165;-51
2021/04/23 12:48:17;;;;;;;10.43;5.63;;;13.20;47.20;;;;;;5012440;28;20049;-53
2021/04/23 12:50:45;;;;;;;9.70;4.95;;;13.00;48.90;;;;;;5010260;28;20479;-51
2021/04/23 12:53:12;;;;;;;12.13;5.28;;;12.70;50.60;;;;;;5010035;28;20062;-55
2021/04/23 12:55:39;;;;;;;10.80;5.00;;;12.50;51.60;;;;;;5010376;28;20041;-52
2021/04/23 12:58:06;;;;;;;8.95;4.75;;;12.50;52.10;;;;;;5007819;28;20041;-55